createdAt,value
2023-03-06T00:06:47.507Z,89.9
2023-03-06T00:26:47.558Z,88.4
2023-03-06T00:46:47.497Z,88.9
2023-03-06T01:06:47.477Z,89.2
2023-03-06T01:46:47.535Z,88.8
2023-03-06T02:06:47.457Z,90.1
2023-03-06T02:26:47.468Z,92.1
2023-03-06T02:46:47.460Z,91.4
2023-03-06T03:06:47.441Z,91.1
2023-03-06T03:26:47.494Z,90.1
2023-03-06T03:46:47.442Z,91.2
2023-03-06T04:06:47.418Z,89.1
2023-03-06T04:26:47.406Z,89.3
2023-03-06T04:46:47.508Z,92.0
2023-03-06T05:06:47.412Z,89.0
2023-03-06T05:26:47.402Z,89.5
2023-03-06T05:46:47.397Z,89.9
2023-03-06T06:06:47.421Z,91.0
2023-03-06T06:26:47.386Z,92.7
2023-03-06T06:46:47.511Z,90.6
2023-03-06T07:06:47.546Z,91.8
2023-03-06T07:26:47.520Z,91.9
2023-03-06T07:46:47.353Z,91.2
2023-03-06T08:06:47.559Z,91.0
2023-03-06T08:26:47.503Z,90.6
2023-03-06T08:46:47.509Z,89.4
2023-03-06T09:06:47.447Z,88.5
2023-03-06T09:26:47.374Z,87.3
2023-03-06T09:46:47.330Z,86.9
2023-03-06T10:06:47.462Z,87.9
2023-03-06T10:26:47.367Z,85.4
2023-03-06T10:46:47.410Z,84.0
2023-03-06T11:06:47.316Z,82.2
2023-03-06T11:26:47.261Z,82.5
2023-03-06T11:46:47.412Z,83.8
2023-03-06T12:06:47.273Z,81.8
2023-03-06T12:26:47.237Z,82.8
2023-03-06T12:46:47.271Z,80.0
2023-03-06T13:06:47.219Z,81.4
2023-03-06T13:26:47.219Z,79.9
2023-03-06T13:46:47.336Z,77.4
2023-03-06T14:06:47.355Z,77.1
2023-03-06T14:26:47.235Z,77.6
2023-03-06T14:46:47.283Z,77.9
2023-03-06T15:06:47.136Z,76.9
2023-03-06T15:26:47.186Z,77.8
2023-03-06T15:46:47.207Z,78.7
2023-03-06T16:06:47.291Z,78.7
2023-03-06T16:26:47.093Z,77.6
2023-03-06T16:46:47.174Z,80.2
2023-03-06T17:06:47.105Z,82.8
2023-03-06T17:26:47.148Z,86.3
2023-03-06T17:46:47.050Z,85.1
2023-03-06T18:06:47.048Z,85.1
2023-03-06T18:26:47.064Z,89.5
2023-03-06T18:46:47.014Z,84.1
2023-03-06T19:06:47.054Z,85.5
2023-03-06T19:26:46.992Z,85.9
2023-03-06T19:46:47.003Z,88.2
2023-03-06T20:06:47.055Z,86.4
2023-03-06T20:26:46.959Z,86.8
2023-03-06T20:46:46.962Z,87.2
2023-03-06T21:06:46.948Z,87.5
2023-03-06T21:26:46.978Z,89.0
2023-03-06T21:46:47.079Z,88.5
2023-03-06T22:06:46.918Z,89.5
2023-03-06T22:26:46.927Z,90.2
2023-03-06T22:46:46.935Z,90.0
2023-03-06T23:06:46.890Z,90.5
2023-03-06T23:26:46.886Z,87.8
2023-03-06T23:46:46.871Z,90.7
